Augusta, New York
Current Conditions -  °F | °C
As of 3:25 PM on Friday 28 Nov 2014 (Local Time) from KRME Reporting Station
Light Snow Light Snow  
Wind Chill: 14°   Ceiling: 2600
Heat Index: 25°   Visibility: 9mi
Dew Point: 20°   Wind: 13mph
Humidity: 81%   Direction: 270°W
Pressure: 30.2"   Gusts: NA
Location:  42.9771°N, 75.5023°W
Report Text: KRME 282025Z 27011KT 9SM -SN SCT019 BKN026 OVC055 M04/M07 A3020 RMK AO2 UPB1959E00SNB00 P0000 T10391067
Loading
Personal Weather Stations






























Interactive Weather Map New forecast layout! Learn more

10-Day Weather Forecast

Advertisements
Track Severe Weather on mobile